createdAt,value
2022-11-04T00:00:12.982Z,14.17
2022-11-04T00:01:15.045Z,14.93
2022-11-04T00:02:17.020Z,13.25
2022-11-04T00:03:19.296Z,13.35
2022-11-04T00:04:23.735Z,13.25
2022-11-04T00:05:25.760Z,12.08
2022-11-04T00:06:28.489Z,12.17
2022-11-04T00:07:30.578Z,11.65
2022-11-04T00:08:32.712Z,11.73
2022-11-04T00:09:34.613Z,11.89
2022-11-04T00:10:36.601Z,12.56
2022-11-04T00:11:39.207Z,12.93
2022-11-04T00:12:41.118Z,11.97
2022-11-04T00:13:43.519Z,12.25
2022-11-04T00:14:45.461Z,12.09
2022-11-04T00:15:47.343Z,12.43
2022-11-04T00:16:49.553Z,11.98
2022-11-04T00:17:51.586Z,11.33
2022-11-04T00:18:53.766Z,12.25
2022-11-04T00:19:55.672Z,10.96
2022-11-04T00:20:57.645Z,11.82
2022-11-04T00:21:59.513Z,11.11
2022-11-04T00:23:01.447Z,11.55
2022-11-04T00:24:04.842Z,11.37
2022-11-04T00:25:09.073Z,12.11
2022-11-04T00:26:12.023Z,11.17
2022-11-04T00:27:17.605Z,11.37
2022-11-04T00:28:20.041Z,11.64
2022-11-04T00:29:21.924Z,12.39
2022-11-04T00:30:24.145Z,12.09
2022-11-04T00:31:26.032Z,12.26
2022-11-04T00:32:28.085Z,13.89
2022-11-04T00:33:30.106Z,13.85
2022-11-04T00:34:32.004Z,13.42
2022-11-04T00:35:33.896Z,13.45
2022-11-04T00:36:35.872Z,13.39
2022-11-04T00:37:39.466Z,14.07
2022-11-04T00:38:41.392Z,12.82
2022-11-04T00:39:43.266Z,12.53
2022-11-04T00:40:45.263Z,12.04
2022-11-04T00:41:47.248Z,12.60
2022-11-04T00:42:49.186Z,11.74
2022-11-04T00:43:59.566Z,12.15
2022-11-04T00:45:02.084Z,11.17
2022-11-04T00:46:04.541Z,10.95
2022-11-04T00:47:06.588Z,10.77
2022-11-04T00:48:09.507Z,12.35
2022-11-04T00:49:12.194Z,11.03
2022-11-04T00:50:15.682Z,11.15
2022-11-04T00:51:17.707Z,11.45
2022-11-04T00:52:20.918Z,10.23
2022-11-04T00:53:22.852Z,11.44
2022-11-04T00:54:24.870Z,11.15
2022-11-04T00:55:29.976Z,10.70
2022-11-04T00:56:32.409Z,10.51
2022-11-04T00:57:34.301Z,10.73
2022-11-04T00:58:36.828Z,10.71
2022-11-04T00:59:39.318Z,10.73
2022-11-04T01:00:41.410Z,10.69
2022-11-04T01:01:43.444Z,10.83
2022-11-04T01:02:46.412Z,11.35
2022-11-04T01:03:51.053Z,12.26
2022-11-04T01:04:53.889Z,11.96
2022-11-04T01:05:57.521Z,11.39
2022-11-04T01:07:00.419Z,10.52
2022-11-04T01:08:04.282Z,10.41
2022-11-04T01:09:08.005Z,11.17
2022-11-04T01:10:10.942Z,11.38
2022-11-04T01:11:13.789Z,10.11
2022-11-04T01:12:17.064Z,10.83
2022-11-04T01:13:18.996Z,11.27
2022-11-04T01:14:22.508Z,11.82
2022-11-04T01:15:24.432Z,10.47
2022-11-04T01:17:29.454Z,11.44
2022-11-04T01:18:32.771Z,11.71
2022-11-04T01:19:35.458Z,11.26
2022-11-04T01:20:37.615Z,10.96
2022-11-04T01:21:39.507Z,11.59
2022-11-04T01:22:41.446Z,10.61
2022-11-04T01:23:44.757Z,10.85
2022-11-04T01:24:46.660Z,12.02
2022-11-04T01:25:48.546Z,10.89
2022-11-04T01:26:50.552Z,11.39
2022-11-04T01:27:52.558Z,11.74
2022-11-04T01:28:55.960Z,11.47
2022-11-04T01:29:57.892Z,11.29
2022-11-04T01:31:05.669Z,10.69
2022-11-04T01:32:07.603Z,11.43
2022-11-04T01:33:09.505Z,12.19
2022-11-04T01:34:12.174Z,11.26
2022-11-04T01:35:14.259Z,11.75
2022-11-04T01:36:16.982Z,11.11
2022-11-04T01:37:18.876Z,12.26
2022-11-04T01:38:20.838Z,11.56
2022-11-04T01:39:22.717Z,11.67
2022-11-04T01:40:25.963Z,11.73
2022-11-04T01:41:31.543Z,11.91
2022-11-04T01:42:33.459Z,11.52
2022-11-04T01:44:00.182Z,12.13
2022-11-04T01:45:02.880Z,12.02
2022-11-04T01:46:05.268Z,12.06
2022-11-04T01:47:16.743Z,11.97
2022-11-04T01:49:57.701Z,12.50
2022-11-04T01:51:00.119Z,12.53
2022-11-04T01:52:11.808Z,12.59
2022-11-04T01:53:20.343Z,13.64
2022-11-04T01:54:22.580Z,13.31
2022-11-04T01:55:28.250Z,13.92
2022-11-04T01:56:31.912Z,15.33
2022-11-04T01:57:37.737Z,20.52
2022-11-04T01:58:46.497Z,23.69
2022-11-04T01:59:48.907Z,25.89
2022-11-04T02:00:51.408Z,19.71
2022-11-04T02:01:53.584Z,20.23
2022-11-04T02:03:05.364Z,22.82
2022-11-04T02:04:10.116Z,22.10
2022-11-04T02:05:12.541Z,20.91
2022-11-04T02:06:16.426Z,18.92
2022-11-04T02:07:18.349Z,16.27
2022-11-04T02:08:21.648Z,16.33
2022-11-04T02:09:26.246Z,16.96
2022-11-04T02:10:30.600Z,17.34
2022-11-04T02:11:32.538Z,16.56
2022-11-04T02:12:34.422Z,15.37
2022-11-04T02:13:36.807Z,15.19
2022-11-04T02:14:40.411Z,14.24
2022-11-04T02:15:58.412Z,13.09
2022-11-04T02:17:07.783Z,12.83
2022-11-04T02:18:19.152Z,13.40
2022-11-04T02:22:52.078Z,12.08
2022-11-04T02:24:30.099Z,11.80
2022-11-04T02:26:05.000Z,10.96
2022-11-04T02:27:10.680Z,11.56
2022-11-04T02:28:25.579Z,11.64
2022-11-04T02:29:33.927Z,10.35
2022-11-04T02:30:42.467Z,11.32
2022-11-04T02:32:05.279Z,10.13
2022-11-04T02:33:13.798Z,9.80
2022-11-04T02:34:28.286Z,10.43
2022-11-04T02:35:39.951Z,10.49
2022-11-04T02:36:45.728Z,9.62
2022-11-04T02:37:54.544Z,10.06
2022-11-04T02:39:09.451Z,10.68
2022-11-04T02:40:37.023Z,8.94
2022-11-04T02:41:43.412Z,9.37
2022-11-04T02:43:20.736Z,8.58
2022-11-04T02:44:38.222Z,8.92
2022-11-04T02:45:44.124Z,8.99
2022-11-04T02:46:55.798Z,9.24
2022-11-04T02:48:04.392Z,9.08
2022-11-04T02:49:15.935Z,9.02
2022-11-04T02:50:28.815Z,8.33
2022-11-04T02:53:24.774Z,9.67
2022-11-04T02:55:40.214Z,7.82
2022-11-04T02:56:46.112Z,8.79
2022-11-04T02:57:51.798Z,8.79
2022-11-04T02:58:58.358Z,8.99
2022-11-04T03:00:06.701Z,8.76
2022-11-04T03:01:12.557Z,9.04
2022-11-04T03:02:18.573Z,8.01
2022-11-04T03:04:46.276Z,8.93
2022-11-04T03:05:51.988Z,8.30
2022-11-04T03:06:56.714Z,8.17
2022-11-04T03:08:03.501Z,8.19
2022-11-04T03:09:08.295Z,7.63
2022-11-04T03:10:14.500Z,7.88
2022-11-04T03:11:22.806Z,8.88
2022-11-04T03:12:28.688Z,8.28
2022-11-04T03:13:40.735Z,8.38
2022-11-04T03:14:46.446Z,7.79
2022-11-04T03:16:04.166Z,8.43
2022-11-04T03:17:21.878Z,8.48
2022-11-04T03:18:36.394Z,8.03
2022-11-04T03:19:42.933Z,7.74
2022-11-04T03:20:47.882Z,9.43
2022-11-04T03:22:02.415Z,7.62
2022-11-04T03:23:05.992Z,7.71
2022-11-04T03:24:08.144Z,8.28
2022-11-04T03:25:10.424Z,7.74
2022-11-04T03:26:16.273Z,7.75
2022-11-04T03:27:39.733Z,7.61
2022-11-04T03:28:48.400Z,7.84
2022-11-04T03:30:05.752Z,7.90
2022-11-04T03:31:11.560Z,7.12
2022-11-04T03:32:23.003Z,7.88
2022-11-04T03:34:57.252Z,8.57
2022-11-04T03:35:59.340Z,8.21
2022-11-04T03:37:01.746Z,7.85
2022-11-04T03:38:06.095Z,8.30
2022-11-04T03:39:08.226Z,8.93
2022-11-04T03:40:14.145Z,8.44
2022-11-04T03:41:21.786Z,7.89
2022-11-04T03:42:27.546Z,8.11
2022-11-04T03:43:31.784Z,7.65
2022-11-04T03:44:33.707Z,7.30
2022-11-04T03:45:36.705Z,7.29
2022-11-04T03:46:40.123Z,7.71
2022-11-04T03:47:43.445Z,8.06
2022-11-04T03:48:45.645Z,7.97
2022-11-04T03:49:48.943Z,7.63
2022-11-04T03:50:51.453Z,7.64
2022-11-04T03:51:53.355Z,7.31
2022-11-04T03:52:56.817Z,7.47
2022-11-04T03:53:59.462Z,7.49
2022-11-04T03:55:03.283Z,7.32
2022-11-04T03:56:11.645Z,7.20
2022-11-04T03:57:35.593Z,7.46
2022-11-04T03:58:56.495Z,7.44
2022-11-04T04:00:11.190Z,6.59
2022-11-04T04:01:22.849Z,6.73
2022-11-04T04:02:31.879Z,7.35
2022-11-04T04:03:37.665Z,7.06
2022-11-04T04:04:43.542Z,6.79
2022-11-04T04:05:56.968Z,6.92
2022-11-04T04:07:05.533Z,6.59
2022-11-04T04:09:42.702Z,7.14
2022-11-04T04:10:57.733Z,6.78
2022-11-04T04:13:28.777Z,7.11
2022-11-04T04:14:34.553Z,7.61
2022-11-04T04:15:46.305Z,7.09
2022-11-04T04:16:51.161Z,7.12
2022-11-04T04:20:22.101Z,7.77
2022-11-04T04:21:27.779Z,7.12
2022-11-04T04:22:39.493Z,6.94
2022-11-04T04:23:44.292Z,7.58
2022-11-04T04:24:49.422Z,7.94
2022-11-04T04:25:54.409Z,6.95
2022-11-04T04:26:57.838Z,7.85
2022-11-04T04:28:01.562Z,7.26
2022-11-04T04:29:06.445Z,8.43
2022-11-04T04:30:12.363Z,7.21
2022-11-04T04:31:16.191Z,7.52
2022-11-04T04:32:21.856Z,7.64
2022-11-04T04:33:23.835Z,7.70
2022-11-04T04:34:30.763Z,7.41
2022-11-04T04:35:42.508Z,7.77
2022-11-04T04:36:56.875Z,8.00
2022-11-04T04:38:02.547Z,8.48
2022-11-04T04:39:08.176Z,7.93
2022-11-04T04:40:14.027Z,8.47
2022-11-04T04:41:22.475Z,8.04
2022-11-04T04:42:25.017Z,8.20
2022-11-04T04:43:27.039Z,8.46
2022-11-04T04:44:29.287Z,8.52
2022-11-04T04:45:34.975Z,8.56
2022-11-04T04:46:40.101Z,9.56
2022-11-04T04:47:45.097Z,8.99
2022-11-04T04:48:47.132Z,9.32
2022-11-04T04:49:57.937Z,10.26
2022-11-04T04:51:00.661Z,8.69
2022-11-04T04:52:05.685Z,9.17
2022-11-04T04:53:09.155Z,8.99
2022-11-04T04:54:12.604Z,9.94
2022-11-04T04:55:15.017Z,9.54
2022-11-04T04:56:17.048Z,9.81
2022-11-04T04:57:19.044Z,9.63
2022-11-04T04:58:21.033Z,8.93
2022-11-04T04:59:22.959Z,8.94
2022-11-04T05:00:26.628Z,9.20
2022-11-04T05:01:28.849Z,9.84
2022-11-04T07:05:09.808Z,13.10
2022-11-04T07:06:12.715Z,14.17
2022-11-04T07:07:14.615Z,15.18
2022-11-04T07:08:16.643Z,15.19
2022-11-04T07:09:18.838Z,14.05
2022-11-04T07:10:20.836Z,14.93
2022-11-04T07:11:23.789Z,15.12
2022-11-04T07:12:26.276Z,15.08
2022-11-04T07:13:29.901Z,15.15
2022-11-04T07:14:31.895Z,13.32
2022-11-04T07:15:33.882Z,14.13
2022-11-04T07:16:36.334Z,14.08
2022-11-04T07:17:38.329Z,13.51
2022-11-04T07:18:41.095Z,12.17
2022-11-04T07:19:45.154Z,12.45
2022-11-04T07:20:47.314Z,12.98
2022-11-04T07:21:49.251Z,12.05
2022-11-04T07:22:56.096Z,12.57
2022-11-04T07:24:00.284Z,12.43
2022-11-04T07:25:02.466Z,11.79
2022-11-04T07:26:07.112Z,12.32
2022-11-04T07:27:09.066Z,12.35
2022-11-04T07:28:11.761Z,10.88
2022-11-04T07:29:14.279Z,11.38
2022-11-04T07:30:16.408Z,11.56
2022-11-04T07:31:18.429Z,11.63
2022-11-04T07:32:20.440Z,11.71
2022-11-04T07:33:23.017Z,11.13
2022-11-04T07:34:24.922Z,11.51
2022-11-04T07:35:26.905Z,11.13
2022-11-04T07:36:29.605Z,12.07
2022-11-04T07:37:31.527Z,12.22
2022-11-04T07:38:34.697Z,11.03
2022-11-04T07:39:36.635Z,10.87
2022-11-04T07:40:38.653Z,11.65
2022-11-04T07:41:40.844Z,11.13
2022-11-04T07:42:42.885Z,10.75
2022-11-04T07:43:49.507Z,10.71
2022-11-04T07:44:51.429Z,10.70
2022-11-04T07:46:01.826Z,11.43
2022-11-04T07:47:03.920Z,12.07
2022-11-04T07:48:07.761Z,11.43
2022-11-04T07:49:09.924Z,11.12
2022-11-04T07:50:12.964Z,10.05
2022-11-04T07:51:17.358Z,10.74
2022-11-04T07:52:19.464Z,9.63
2022-11-04T07:53:22.393Z,11.13
2022-11-04T07:54:24.478Z,11.79
2022-11-04T07:55:26.683Z,10.93
2022-11-04T07:56:28.777Z,11.80
2022-11-04T07:57:30.719Z,11.29
2022-11-04T07:58:33.915Z,11.55
2022-11-04T07:59:35.824Z,11.09
2022-11-04T08:00:37.799Z,11.99
2022-11-04T08:01:39.788Z,10.25
2022-11-04T08:02:43.601Z,10.67
2022-11-04T08:03:45.551Z,10.71
2022-11-04T08:04:47.587Z,11.81
2022-11-04T08:05:55.355Z,9.93
2022-11-04T08:06:57.508Z,10.56
2022-11-04T08:07:59.518Z,10.62
2022-11-04T08:09:01.581Z,10.14
2022-11-04T08:10:04.793Z,10.16
2022-11-04T08:11:15.837Z,11.53
2022-11-04T08:12:16.104Z,10.84
2022-11-04T08:13:18.015Z,11.23
2022-11-04T08:14:20.132Z,10.51
2022-11-04T08:15:22.147Z,11.20
2022-11-04T08:16:27.705Z,10.96
2022-11-04T08:17:29.150Z,11.11
2022-11-04T08:18:32.820Z,10.90
2022-11-04T08:19:34.723Z,11.87
2022-11-04T08:20:37.223Z,11.32
2022-11-04T08:21:39.137Z,10.64
2022-11-04T08:22:41.022Z,10.84
2022-11-04T08:23:44.551Z,10.52
2022-11-04T08:24:46.637Z,10.70
2022-11-04T08:25:48.705Z,10.77
2022-11-04T08:26:50.682Z,10.33
2022-11-04T08:27:56.776Z,12.63
2022-11-04T08:28:57.057Z,10.05
2022-11-04T08:29:58.927Z,10.77
2022-11-04T08:31:06.933Z,10.14
2022-11-04T08:32:09.764Z,10.41
2022-11-04T08:33:11.894Z,9.84
2022-11-04T08:34:13.968Z,10.41
2022-11-04T08:35:15.862Z,9.89
2022-11-04T08:36:25.058Z,10.17
2022-11-04T08:37:27.203Z,9.24
2022-11-04T08:38:29.952Z,10.06
2022-11-04T08:39:32.444Z,9.79
2022-11-04T08:40:36.434Z,9.64
2022-11-04T08:41:41.152Z,10.34
2022-11-04T08:42:43.273Z,9.73
2022-11-04T08:43:46.095Z,9.53
2022-11-04T08:44:51.269Z,8.88
2022-11-04T08:45:53.791Z,9.96
2022-11-04T08:46:56.819Z,10.49
2022-11-04T08:48:05.190Z,10.11
2022-11-04T08:49:09.940Z,10.07
2022-11-04T08:50:09.404Z,9.73
2022-11-04T08:51:18.195Z,10.57
2022-11-04T08:52:20.116Z,10.36
2022-11-04T08:53:22.133Z,11.13
2022-11-04T08:54:24.948Z,9.99
2022-11-04T08:55:31.095Z,10.46
2022-11-04T08:56:36.159Z,10.01
2022-11-04T08:57:38.108Z,9.51
2022-11-04T08:58:42.077Z,8.83
2022-11-04T08:59:43.990Z,9.37
2022-11-04T09:00:46.078Z,8.85
2022-11-04T09:01:48.025Z,10.22
2022-11-04T09:02:50.923Z,10.13
2022-11-04T09:03:53.414Z,9.75
2022-11-04T09:04:55.395Z,9.87
2022-11-04T09:05:58.743Z,9.65
2022-11-04T09:07:07.734Z,9.98
2022-11-04T09:08:06.225Z,9.46
2022-11-04T09:09:12.269Z,8.89
2022-11-04T09:10:14.308Z,8.57
2022-11-04T09:11:17.012Z,8.97
2022-11-04T09:12:18.923Z,8.47
2022-11-04T09:13:20.946Z,8.87
2022-11-04T09:14:22.829Z,8.64
2022-11-04T09:15:24.734Z,8.60
2022-11-04T09:16:29.607Z,8.43
2022-11-04T09:17:31.602Z,8.16
2022-11-04T09:18:35.086Z,9.52
2022-11-04T09:19:37.001Z,8.64
2022-11-04T09:20:39.669Z,8.77
2022-11-04T09:21:41.745Z,9.29
2022-11-04T09:22:46.020Z,10.21
2022-11-04T09:23:47.448Z,9.76
2022-11-04T09:24:49.423Z,9.63
2022-11-04T09:25:52.672Z,10.27
2022-11-04T09:26:54.807Z,9.31
2022-11-04T09:27:56.700Z,9.53
2022-11-04T09:28:59.331Z,10.79
2022-11-04T09:30:01.395Z,18.70
2022-11-04T09:31:09.508Z,17.16
2022-11-04T09:32:11.507Z,15.91
2022-11-04T09:33:13.390Z,12.88
2022-11-04T09:34:15.662Z,10.93
2022-11-04T09:35:17.773Z,10.83
2022-11-04T09:36:19.772Z,10.56
2022-11-04T09:37:21.666Z,10.77
2022-11-04T09:38:24.670Z,10.49
2022-11-04T09:39:26.807Z,10.19
2022-11-04T09:40:29.437Z,10.17
2022-11-04T09:41:46.666Z,10.11
2022-11-04T09:43:21.783Z,10.13
2022-11-04T09:45:14.835Z,9.18
2022-11-04T09:45:48.378Z,9.71
2022-11-04T09:46:53.972Z,10.52
2022-11-04T09:47:59.719Z,11.63
2022-11-04T09:49:05.186Z,12.85
2022-11-04T09:50:11.355Z,12.50
2022-11-04T09:51:32.609Z,12.19
2022-11-04T09:52:36.509Z,10.76
2022-11-04T09:53:42.231Z,10.51
2022-11-04T09:55:02.947Z,10.26
2022-11-04T09:57:25.202Z,10.74
2022-11-04T09:58:31.043Z,9.02
2022-11-04T09:59:34.352Z,12.14
2022-11-04T10:00:38.811Z,10.91
2022-11-04T10:01:53.607Z,11.15
2022-11-04T10:03:14.616Z,9.93
2022-11-04T10:06:06.179Z,10.97
2022-11-04T10:07:17.742Z,10.60
2022-11-04T10:08:41.894Z,9.95
2022-11-04T14:26:06.048Z,17.17
2022-11-04T14:27:28.338Z,16.95
2022-11-04T14:28:32.937Z,16.74
2022-11-04T14:29:35.567Z,15.20
2022-11-04T14:30:55.227Z,17.63
2022-11-04T14:31:59.496Z,14.23
2022-11-04T14:33:05.182Z,14.83
2022-11-04T14:34:09.715Z,14.33
2022-11-04T14:35:18.217Z,13.75
2022-11-04T14:36:26.986Z,13.84
2022-11-04T14:39:47.019Z,14.32
2022-11-04T14:43:07.227Z,13.48
2022-11-04T14:44:16.247Z,12.72
2022-11-04T14:45:28.300Z,13.71
2022-11-04T14:46:36.809Z,13.51
2022-11-04T14:47:41.657Z,12.69
2022-11-04T14:48:47.197Z,11.79
2022-11-04T14:49:52.911Z,11.93
2022-11-04T14:50:56.233Z,12.92
2022-11-04T14:51:58.242Z,12.41
2022-11-04T14:53:03.035Z,11.54
2022-11-04T14:54:11.683Z,12.08
2022-11-04T14:55:17.341Z,11.81
2022-11-04T14:56:24.501Z,11.56
2022-11-04T14:57:29.146Z,12.67
2022-11-04T14:58:31.406Z,12.94
2022-11-04T14:59:33.420Z,11.81
2022-11-04T15:00:51.928Z,12.59
2022-11-04T15:01:55.012Z,11.19
2022-11-04T15:03:41.210Z,10.89
2022-11-04T15:04:28.933Z,11.43
2022-11-04T15:05:32.017Z,11.41
2022-11-04T15:06:47.051Z,11.97
2022-11-04T15:07:39.155Z,12.39
2022-11-04T15:08:44.334Z,11.73
2022-11-04T15:09:48.961Z,12.33
2022-11-04T15:10:54.439Z,10.99
2022-11-04T15:12:11.804Z,12.50
2022-11-04T15:13:17.467Z,11.42
2022-11-04T15:14:24.628Z,12.29
2022-11-04T15:15:36.069Z,11.66
2022-11-04T15:16:39.438Z,12.71
2022-11-04T15:17:41.702Z,14.61
2022-11-04T15:18:44.843Z,19.20
2022-11-04T15:22:06.740Z,24.74
2022-11-04T15:23:12.851Z,19.31
2022-11-04T15:24:16.284Z,18.41
2022-11-04T15:25:20.183Z,17.47
2022-11-04T15:26:31.180Z,17.74
2022-11-04T15:27:35.760Z,17.61
2022-11-04T15:31:06.237Z,18.26
2022-11-04T15:33:15.793Z,18.31
2022-11-04T15:34:18.319Z,17.94
2022-11-04T15:35:21.376Z,17.33
2022-11-04T15:36:29.664Z,17.62
2022-11-04T15:37:33.783Z,19.46
2022-11-04T15:38:38.505Z,18.26
2022-11-04T15:39:44.102Z,19.38
2022-11-04T15:40:46.491Z,20.09
2022-11-04T15:41:55.061Z,18.97
2022-11-04T15:43:00.202Z,19.01
2022-11-04T15:44:03.007Z,17.65
2022-11-04T15:45:27.340Z,18.77
2022-11-04T15:46:30.019Z,17.44
2022-11-04T15:47:31.942Z,18.19
2022-11-04T15:48:34.376Z,19.15
2022-11-04T15:49:37.046Z,19.38
2022-11-04T15:50:41.252Z,18.96
2022-11-04T15:51:43.381Z,18.61
2022-11-04T15:52:49.043Z,17.95
2022-11-04T15:54:17.682Z,17.89
2022-11-04T15:56:37.098Z,17.54
2022-11-04T15:57:39.998Z,17.79
2022-11-04T15:58:44.400Z,18.03
2022-11-04T15:59:50.142Z,17.81
2022-11-04T16:00:54.261Z,17.64
2022-11-04T16:01:57.381Z,17.51
2022-11-04T16:03:00.674Z,18.33
2022-11-04T16:04:05.272Z,18.37
2022-11-04T16:06:39.072Z,17.77
2022-11-04T16:07:43.971Z,15.41
2022-11-04T16:09:01.160Z,17.49
2022-11-04T16:10:23.288Z,15.92
2022-11-04T16:11:25.375Z,14.14
2022-11-04T16:12:37.182Z,15.53
2022-11-04T16:13:39.777Z,14.57
2022-11-04T16:14:50.508Z,15.07
2022-11-04T16:16:00.347Z,14.08
2022-11-04T16:17:02.484Z,13.56
2022-11-04T16:18:07.661Z,13.55
2022-11-04T16:19:16.429Z,14.65
2022-11-04T16:20:18.422Z,13.52
2022-11-04T16:21:33.463Z,13.24
2022-11-04T16:22:37.591Z,14.14
2022-11-04T16:23:45.819Z,14.64
2022-11-04T16:24:50.539Z,15.59
2022-11-04T16:26:02.579Z,16.73
2022-11-04T16:27:11.613Z,17.16
2022-11-04T16:28:21.592Z,18.62
2022-11-04T16:29:33.081Z,16.12
2022-11-04T16:30:35.431Z,15.65
2022-11-04T16:31:37.458Z,15.78
2022-11-04T16:32:50.713Z,16.61
2022-11-04T16:33:53.400Z,16.81
2022-11-04T16:35:05.821Z,17.18
2022-11-04T16:36:11.632Z,17.73
2022-11-04T16:37:13.567Z,17.16
2022-11-04T16:38:16.735Z,17.23
2022-11-04T16:39:18.646Z,19.73
2022-11-04T16:40:23.464Z,20.15
2022-11-04T16:41:28.286Z,20.52
2022-11-04T16:42:30.224Z,20.39
2022-11-04T16:43:32.807Z,20.42
2022-11-04T16:44:36.813Z,21.42
2022-11-04T16:45:39.785Z,21.27
2022-11-04T16:46:42.030Z,25.23
2022-11-04T16:47:44.411Z,22.60
2022-11-04T16:48:46.323Z,21.72
2022-11-04T16:49:48.252Z,23.28
2022-11-04T16:50:50.432Z,21.05
2022-11-04T16:51:59.130Z,19.92
2022-11-04T16:53:01.994Z,19.62
2022-11-04T16:54:04.921Z,20.51
2022-11-04T16:55:08.391Z,19.19
2022-11-04T16:56:11.068Z,20.07
2022-11-04T16:57:14.280Z,19.99
2022-11-04T16:58:17.827Z,19.29
2022-11-04T16:59:20.289Z,18.08
2022-11-04T17:00:25.969Z,18.24
2022-11-04T17:01:27.994Z,18.44
2022-11-04T17:02:31.433Z,16.66
2022-11-04T17:03:33.508Z,17.86
2022-11-04T17:04:35.502Z,16.91
2022-11-04T17:05:37.395Z,14.17
2022-11-04T17:06:39.534Z,16.38
2022-11-04T17:07:52.801Z,15.69
2022-11-04T17:08:46.134Z,18.01
2022-11-04T17:09:48.664Z,18.01
2022-11-04T17:10:51.979Z,18.32
2022-11-04T17:11:53.992Z,26.32
2022-11-04T17:12:56.012Z,42.48
2022-11-04T17:13:57.921Z,49.75
2022-11-04T17:15:00.745Z,45.13
2022-11-04T17:16:04.279Z,36.38
2022-11-04T17:17:06.653Z,32.48
2022-11-04T17:18:13.246Z,29.87
2022-11-04T17:19:15.674Z,27.65
2022-11-04T17:20:18.816Z,25.09
2022-11-04T17:21:21.206Z,24.86
2022-11-04T17:22:23.230Z,20.52
2022-11-04T17:23:25.243Z,18.72
2022-11-04T17:24:27.865Z,18.68
2022-11-04T17:25:30.008Z,17.37
2022-11-04T17:26:31.999Z,16.59
2022-11-04T17:27:34.080Z,17.03
2022-11-04T17:28:35.974Z,15.71
2022-11-04T17:29:38.005Z,16.29
2022-11-04T17:30:41.408Z,14.83
2022-11-04T17:31:44.739Z,14.07
2022-11-04T17:32:47.971Z,13.43
2022-11-04T17:33:49.881Z,13.19
2022-11-04T17:34:51.771Z,13.44
2022-11-04T17:35:53.969Z,13.09
2022-11-04T17:36:55.988Z,12.57
2022-11-04T17:37:57.874Z,13.21
2022-11-04T17:39:00.091Z,13.37
2022-11-04T17:40:03.146Z,12.74
2022-11-04T17:41:05.946Z,12.94
2022-11-04T17:42:07.829Z,15.14
2022-11-04T17:43:12.386Z,14.29
2022-11-04T17:44:13.526Z,14.40
2022-11-04T17:45:15.643Z,15.43
2022-11-04T17:46:17.750Z,14.32
2022-11-04T17:47:20.245Z,15.24
2022-11-04T17:48:22.163Z,15.56
2022-11-04T17:49:24.899Z,14.00
2022-11-04T17:50:27.178Z,13.18
2022-11-04T17:51:31.027Z,13.62
2022-11-04T17:52:34.732Z,13.76
2022-11-04T17:53:38.681Z,14.30
2022-11-04T17:54:40.878Z,16.34
2022-11-04T17:55:42.790Z,19.18
2022-11-04T17:56:45.094Z,22.07
2022-11-04T17:57:47.078Z,20.45
2022-11-04T17:58:50.386Z,22.82
2022-11-04T17:59:53.505Z,20.89
2022-11-04T18:00:55.723Z,19.72
2022-11-04T18:01:58.281Z,20.09
2022-11-04T18:03:00.444Z,19.43
2022-11-04T18:04:03.277Z,16.93
2022-11-04T18:05:06.608Z,16.56
2022-11-04T21:25:28.779Z,27.46
2022-11-04T21:26:33.523Z,25.41
2022-11-04T21:27:35.449Z,24.14
2022-11-04T21:28:38.366Z,26.55
2022-11-04T21:29:40.295Z,24.59
2022-11-04T21:30:46.263Z,23.24
2022-11-04T21:31:48.184Z,25.13
2022-11-04T21:32:50.083Z,27.56
2022-11-04T21:33:53.553Z,26.03
2022-11-04T21:34:55.458Z,25.94
2022-11-04T21:36:06.896Z,24.97
2022-11-04T21:38:16.824Z,24.43
2022-11-04T21:39:19.105Z,20.82
2022-11-04T21:40:21.959Z,19.08
2022-11-04T21:41:26.617Z,18.70
2022-11-04T21:42:28.589Z,18.71
2022-11-04T21:43:30.473Z,17.76
2022-11-04T21:44:32.392Z,18.43
2022-11-04T21:45:34.903Z,18.56
2022-11-04T21:46:38.708Z,18.38
2022-11-04T21:47:40.806Z,17.51
2022-11-04T21:48:42.676Z,18.17
2022-11-04T21:49:44.564Z,19.78
2022-11-04T21:50:46.916Z,19.89
2022-11-04T21:51:48.925Z,21.96
2022-11-04T21:52:50.976Z,22.65
2022-11-04T21:53:53.072Z,23.23
2022-11-04T21:54:57.401Z,22.22
2022-11-04T21:56:06.501Z,23.21
2022-11-04T21:57:08.436Z,24.90
2022-11-04T21:58:10.630Z,24.35
2022-11-04T21:59:18.530Z,24.33
2022-11-04T22:00:21.103Z,24.64
2022-11-04T22:01:26.160Z,23.89
2022-11-04T22:02:28.561Z,23.98
2022-11-04T22:03:30.815Z,26.42
2022-11-04T22:04:32.688Z,25.55
2022-11-04T22:05:34.558Z,25.72
2022-11-04T22:06:36.545Z,25.85
2022-11-04T22:07:39.520Z,25.03
2022-11-04T22:08:46.839Z,25.65
2022-11-04T22:09:48.758Z,25.64
2022-11-04T22:10:50.730Z,26.90
2022-11-04T22:11:52.602Z,25.49
2022-11-04T22:12:55.463Z,28.97
2022-11-04T22:14:00.893Z,27.57
2022-11-04T22:15:03.505Z,26.57
2022-11-04T22:16:20.470Z,27.79
2022-11-04T22:17:22.396Z,28.38
2022-11-04T22:18:25.807Z,29.39
2022-11-04T22:19:27.818Z,29.12
2022-11-04T22:20:31.144Z,27.71
2022-11-04T22:21:33.407Z,28.58
2022-11-04T22:22:35.293Z,27.99
2022-11-04T22:23:38.173Z,29.82
2022-11-04T22:24:40.098Z,26.46
2022-11-04T22:25:47.313Z,25.95
2022-11-04T22:26:46.147Z,25.37
2022-11-04T22:27:48.089Z,27.10
2022-11-04T22:28:51.961Z,25.19
2022-11-04T22:29:53.855Z,23.68
2022-11-04T22:30:57.232Z,21.90
2022-11-04T22:32:00.305Z,24.57
2022-11-04T22:33:03.591Z,22.13
2022-11-04T22:34:06.122Z,23.26
2022-11-04T22:35:11.177Z,23.41
2022-11-04T22:36:13.909Z,24.47
2022-11-04T22:37:17.716Z,27.22
2022-11-04T22:38:19.650Z,27.64
2022-11-04T22:39:21.546Z,29.81
2022-11-04T22:40:23.829Z,29.11
2022-11-04T22:41:29.488Z,29.40
2022-11-04T22:42:31.580Z,27.68
2022-11-04T22:43:33.718Z,28.01
2022-11-04T22:44:35.603Z,29.68
2022-11-04T22:45:38.606Z,28.14
2022-11-04T22:46:40.852Z,28.91
2022-11-04T22:47:43.091Z,29.45
2022-11-04T22:48:45.324Z,29.15
2022-11-04T22:49:47.209Z,27.49
2022-11-04T22:50:57.589Z,28.59
2022-11-04T22:51:59.560Z,31.78
2022-11-04T22:53:01.480Z,28.51
2022-11-04T22:54:08.140Z,27.54
2022-11-04T22:55:07.892Z,29.92
2022-11-04T22:56:13.513Z,31.05
2022-11-04T22:57:15.481Z,31.41
2022-11-04T22:58:17.986Z,32.27
2022-11-04T22:59:20.578Z,30.66
2022-11-04T23:00:22.577Z,31.07
2022-11-04T23:01:24.546Z,29.51
2022-11-04T23:02:32.446Z,28.49
2022-11-04T23:03:32.523Z,29.56
2022-11-04T23:04:35.879Z,31.21
2022-11-04T23:05:38.925Z,27.87
2022-11-04T23:06:41.522Z,34.99
2022-11-04T23:07:43.516Z,42.52
2022-11-04T23:08:45.496Z,35.08
2022-11-04T23:09:47.866Z,38.23
2022-11-04T23:10:52.335Z,45.43
2022-11-04T23:11:54.290Z,27.56
2022-11-04T23:12:56.179Z,26.48
2022-11-04T23:13:58.676Z,25.37
2022-11-04T23:15:00.764Z,24.75
2022-11-04T23:16:06.138Z,24.58
2022-11-04T23:17:20.280Z,24.42
2022-11-04T23:18:22.760Z,31.07
2022-11-04T23:19:29.752Z,32.05
2022-11-04T23:20:28.650Z,31.72
2022-11-04T23:21:30.561Z,27.75
2022-11-04T23:22:32.457Z,24.10
2022-11-04T23:23:34.344Z,24.87
2022-11-04T23:24:36.229Z,23.56
2022-11-04T23:25:39.340Z,22.71
2022-11-04T23:26:42.193Z,23.14
2022-11-04T23:27:52.707Z,21.33
2022-11-04T23:28:55.543Z,22.79
2022-11-04T23:31:09.965Z,25.36
2022-11-04T23:32:11.858Z,24.46
2022-11-04T23:33:14.737Z,22.55
2022-11-04T23:34:17.542Z,23.12
2022-11-04T23:35:22.146Z,23.35
2022-11-04T23:36:24.175Z,22.80
2022-11-04T23:37:26.045Z,22.65
2022-11-04T23:38:28.576Z,24.03
2022-11-04T23:39:30.667Z,23.37
2022-11-04T23:40:32.861Z,23.99
2022-11-04T23:41:34.864Z,25.35
2022-11-04T23:42:36.776Z,27.97
2022-11-04T23:43:39.366Z,24.91
2022-11-04T23:44:46.721Z,24.06
2022-11-04T23:45:51.729Z,22.66
2022-11-04T23:46:53.775Z,23.91
2022-11-04T23:47:55.771Z,31.87
2022-11-04T23:48:57.780Z,27.11
2022-11-04T23:50:00.870Z,26.42
2022-11-04T23:51:03.227Z,25.23
2022-11-04T23:52:05.129Z,27.47
2022-11-04T23:53:09.076Z,25.56
2022-11-04T23:54:11.410Z,25.43
2022-11-04T23:55:13.418Z,24.59
2022-11-04T23:56:16.452Z,25.29
2022-11-04T23:57:18.754Z,29.07
2022-11-04T23:58:20.830Z,33.53
2022-11-04T23:59:22.717Z,33.27
